createdAt,value
2018-04-29T00:00:05.480Z,9.30
2018-04-29T00:02:32.915Z,9.47
2018-04-29T00:05:01.134Z,8.73
2018-04-29T00:07:28.593Z,7.70
2018-04-29T00:09:56.032Z,8.27
2018-04-29T00:12:23.484Z,9.20
2018-04-29T00:14:50.936Z,7.67
2018-04-29T00:17:18.360Z,8.53
2018-04-29T00:19:45.792Z,8.13
2018-04-29T00:22:14.029Z,8.87
2018-04-29T00:24:41.486Z,10.53
2018-04-29T00:27:08.908Z,8.23
2018-04-29T00:29:36.404Z,9.83
2018-04-29T00:32:03.951Z,9.90
2018-04-29T00:34:31.420Z,8.80
2018-04-29T00:36:58.856Z,8.60
2018-04-29T00:39:26.288Z,8.30
2018-04-29T00:41:53.781Z,8.20
2018-04-29T00:44:21.203Z,8.37
2018-04-29T00:46:48.644Z,10.83
2018-04-29T00:49:16.841Z,9.20
2018-04-29T00:51:56.396Z,8.33
2018-04-29T00:54:23.824Z,10.43
2018-04-29T00:56:51.317Z,9.00
2018-04-29T00:59:18.787Z,10.30
2018-04-29T01:01:46.327Z,10.53
2018-04-29T01:04:13.870Z,9.50
2018-04-29T01:06:41.284Z,10.57
2018-04-29T01:09:09.508Z,10.37
2018-04-29T01:11:36.949Z,11.30
2018-04-29T01:14:04.382Z,10.47
2018-04-29T01:16:32.600Z,12.30
2018-04-29T01:19:00.068Z,12.70
2018-04-29T01:21:27.515Z,13.03
2018-04-29T01:23:54.951Z,12.03
2018-04-29T01:26:22.425Z,11.77
2018-04-29T01:28:49.864Z,11.67
2018-04-29T01:31:17.308Z,15.00
2018-04-29T01:33:44.732Z,12.80
2018-04-29T01:36:12.959Z,13.30
2018-04-29T01:38:40.421Z,13.17
2018-04-29T01:41:08.397Z,12.60
2018-04-29T01:43:35.848Z,14.30
2018-04-29T01:46:03.284Z,12.37
2018-04-29T01:48:30.753Z,13.73
2018-04-29T01:50:58.192Z,13.50
2018-04-29T01:53:25.630Z,13.03
2018-04-29T01:55:53.076Z,12.93
2018-04-29T01:58:21.288Z,11.53
2018-04-29T02:00:48.762Z,12.40
2018-04-29T02:03:16.208Z,12.43
2018-04-29T02:05:43.644Z,13.60
2018-04-29T02:08:11.080Z,13.53
2018-04-29T02:10:38.508Z,12.73
2018-04-29T02:13:05.952Z,14.23
2018-04-29T02:15:33.980Z,14.00
2018-04-29T02:18:01.408Z,14.67
2018-04-29T02:20:29.616Z,14.40
2018-04-29T02:22:57.056Z,15.00
2018-04-29T02:25:24.532Z,14.77
2018-04-29T02:27:51.997Z,15.23
2018-04-29T02:30:19.552Z,14.10
2018-04-29T02:32:47.005Z,18.00
2018-04-29T02:35:14.468Z,16.67
2018-04-29T02:37:41.905Z,17.50
2018-04-29T02:40:09.376Z,15.50
2018-04-29T02:42:36.820Z,17.40
2018-04-29T02:45:04.300Z,18.30
2018-04-29T02:47:31.748Z,19.73
2018-04-29T02:49:59.200Z,18.17
2018-04-29T02:52:26.656Z,18.53
2018-04-29T02:54:54.080Z,18.13
2018-04-29T02:57:21.520Z,20.10
2018-04-29T02:59:49.740Z,20.93
2018-04-29T03:02:17.190Z,20.00
2018-04-29T03:04:44.668Z,19.73
2018-04-29T03:07:12.090Z,20.63
2018-04-29T03:09:39.650Z,20.47
2018-04-29T03:12:07.117Z,20.30
2018-04-29T03:14:34.550Z,20.00
2018-04-29T03:17:01.988Z,22.10
2018-04-29T03:19:30.178Z,22.70
2018-04-29T03:21:57.608Z,20.77
2018-04-29T03:24:25.845Z,22.23
2018-04-29T03:26:53.295Z,23.40
2018-04-29T03:29:20.724Z,27.10
2018-04-29T03:31:48.148Z,26.73
2018-04-29T03:34:16.341Z,24.87
2018-04-29T03:36:43.832Z,24.00
2018-04-29T03:39:11.256Z,22.70
2018-04-29T03:41:38.746Z,22.40
2018-04-29T03:44:06.184Z,23.13
2018-04-29T03:46:33.652Z,22.27
2018-04-29T03:49:01.076Z,22.13
2018-04-29T03:51:28.557Z,23.13
2018-04-29T03:53:56.002Z,24.73
2018-04-29T03:56:23.424Z,24.47
2018-04-29T03:59:03.525Z,26.80
2018-04-29T04:04:36.535Z,20.03
2018-04-29T04:07:03.970Z,22.60
2018-04-29T04:09:31.388Z,28.30
2018-04-29T04:11:59.585Z,27.30
2018-04-29T04:14:27.008Z,28.23
2018-04-29T04:16:54.437Z,28.13
2018-04-29T04:19:21.884Z,26.53
2018-04-29T04:21:49.341Z,24.13
2018-04-29T04:24:16.792Z,22.97
2018-04-29T04:26:44.217Z,21.17
2018-04-29T04:29:11.650Z,23.13
2018-04-29T04:31:39.861Z,25.20
2018-04-29T04:34:07.360Z,19.60
2018-04-29T04:36:35.481Z,20.40
2018-04-29T04:39:02.946Z,19.53
2018-04-29T04:41:30.347Z,19.13
2018-04-29T04:43:57.828Z,18.67
2018-04-29T04:46:25.223Z,18.17
2018-04-29T04:48:52.652Z,17.80
2018-04-29T04:51:20.128Z,15.17
2018-04-29T04:53:47.564Z,16.17
2018-04-29T04:56:14.994Z,14.10
2018-04-29T04:58:43.188Z,13.17
2018-04-29T05:01:10.672Z,12.70
2018-04-29T05:03:38.122Z,13.10
2018-04-29T05:06:05.560Z,12.87
2018-04-29T05:08:33.011Z,13.50
2018-04-29T05:11:00.436Z,11.80
2018-04-29T05:13:27.868Z,11.67
2018-04-29T05:15:55.296Z,13.30
2018-04-29T05:18:22.733Z,12.57
2018-04-29T05:20:50.220Z,13.27
2018-04-29T05:23:17.661Z,13.03
2018-04-29T05:25:45.153Z,12.03
2018-04-29T05:28:12.574Z,13.80
2018-04-29T05:30:40.001Z,12.80
2018-04-29T05:33:08.219Z,13.83
2018-04-29T05:35:35.673Z,12.50
2018-04-29T05:38:03.116Z,11.53
2018-04-29T05:40:30.537Z,11.87
2018-04-29T05:42:58.758Z,10.97
2018-04-29T05:45:26.186Z,10.53
2018-04-29T05:47:53.674Z,11.70
2018-04-29T05:50:21.122Z,8.80
2018-04-29T05:52:49.180Z,9.63
2018-04-29T05:55:16.604Z,9.27
2018-04-29T05:57:44.836Z,8.77
2018-04-29T06:00:12.262Z,9.80
2018-04-29T06:02:39.680Z,10.30
2018-04-29T06:05:07.882Z,10.30
2018-04-29T06:07:35.308Z,10.43
2018-04-29T06:10:02.745Z,10.43
2018-04-29T06:12:30.945Z,9.20
2018-04-29T06:14:58.452Z,9.70
2018-04-29T06:17:25.875Z,10.27
2018-04-29T06:19:53.308Z,9.80
2018-04-29T06:22:21.500Z,9.43
2018-04-29T06:24:48.993Z,9.30
2018-04-29T06:27:16.415Z,10.33
2018-04-29T06:29:43.844Z,8.70
2018-04-29T06:32:12.180Z,8.63
2018-04-29T06:34:39.628Z,10.40
2018-04-29T06:37:07.080Z,9.33
2018-04-29T06:39:34.539Z,8.83
2018-04-29T06:42:01.996Z,9.53
2018-04-29T06:44:29.457Z,10.00
2018-04-29T06:46:56.967Z,10.63
2018-04-29T06:49:24.363Z,9.33
2018-04-29T06:51:51.820Z,9.40
2018-04-29T06:54:19.275Z,9.83
2018-04-29T06:56:46.710Z,9.47
2018-04-29T06:59:14.188Z,10.80
2018-04-29T07:01:41.629Z,11.30
2018-04-29T07:04:09.148Z,9.20
2018-04-29T07:06:36.528Z,8.90
2018-04-29T07:09:04.017Z,9.77
2018-04-29T07:11:31.476Z,8.43
2018-04-29T07:13:58.929Z,8.80
2018-04-29T07:16:26.396Z,8.63
2018-04-29T07:18:53.828Z,8.77
2018-04-29T07:21:21.297Z,7.80
2018-04-29T07:23:48.732Z,8.40
2018-04-29T07:26:16.160Z,8.80
2018-04-29T07:28:44.393Z,8.20
2018-04-29T07:31:11.818Z,6.93
2018-04-29T07:33:39.293Z,7.73
2018-04-29T07:36:06.745Z,8.37
2018-04-29T07:38:34.312Z,7.50
2018-04-29T07:41:01.760Z,8.00
2018-04-29T07:43:29.322Z,8.13
2018-04-29T07:45:56.782Z,8.00
2018-04-29T07:48:24.232Z,7.87
2018-04-29T07:50:51.679Z,7.63
2018-04-29T07:53:19.788Z,7.90
2018-04-29T07:55:47.214Z,8.00
2018-04-29T07:58:14.675Z,8.43
2018-04-29T08:00:42.144Z,7.50
2018-04-29T08:03:09.568Z,8.47
2018-04-29T08:05:37.041Z,7.73
2018-04-29T08:08:04.461Z,9.07
2018-04-29T08:10:31.892Z,7.80
2018-04-29T08:13:00.122Z,11.03
2018-04-29T08:15:27.629Z,8.87
2018-04-29T08:17:55.048Z,7.63
2018-04-29T08:20:22.475Z,9.47
2018-04-29T08:22:49.900Z,8.67
2018-04-29T08:25:18.121Z,8.07
2018-04-29T08:27:45.544Z,7.90
2018-04-29T08:30:12.968Z,8.43
2018-04-29T08:32:40.692Z,9.60
2018-04-29T08:35:08.149Z,9.37
2018-04-29T08:37:35.608Z,9.80
2018-04-29T08:40:03.037Z,9.73
2018-04-29T08:42:30.980Z,10.87
2018-04-29T08:44:59.197Z,12.23
2018-04-29T08:47:26.695Z,10.00
2018-04-29T08:49:54.125Z,10.10
2018-04-29T08:52:21.653Z,10.13
2018-04-29T08:54:49.169Z,10.60
2018-04-29T08:57:17.291Z,10.30
2018-04-29T08:59:44.753Z,11.00
2018-04-29T09:02:12.193Z,11.87
2018-04-29T09:04:39.648Z,9.23
2018-04-29T09:07:07.080Z,9.80
2018-04-29T09:09:35.295Z,8.70
2018-04-29T09:12:02.752Z,10.27
2018-04-29T09:14:30.210Z,10.27
2018-04-29T09:16:57.752Z,10.23
2018-04-29T09:19:25.103Z,10.50
2018-04-29T09:21:52.568Z,9.37
2018-04-29T09:24:20.029Z,10.43
2018-04-29T09:26:47.485Z,9.23
2018-04-29T09:29:14.935Z,9.93
2018-04-29T09:31:42.376Z,9.70
2018-04-29T09:34:09.852Z,10.37
2018-04-29T09:36:37.293Z,9.23
2018-04-29T09:39:05.476Z,9.30
2018-04-29T09:41:32.908Z,9.27
2018-04-29T09:44:00.336Z,8.90
2018-04-29T09:46:28.565Z,7.90
2018-04-29T09:48:56.005Z,8.87
2018-04-29T09:51:23.432Z,7.83
2018-04-29T09:53:51.636Z,7.93
2018-04-29T09:56:19.049Z,8.80
2018-04-29T09:58:47.288Z,7.90
2018-04-29T10:01:17.835Z,9.23
2018-04-29T10:03:48.005Z,8.50
2018-04-29T10:06:15.424Z,9.23
2018-04-29T10:08:43.620Z,9.20
2018-04-29T10:11:11.108Z,9.17
2018-04-29T10:13:38.532Z,8.40
2018-04-29T10:16:06.065Z,8.73
2018-04-29T10:18:34.292Z,8.40
2018-04-29T10:21:01.723Z,8.03
2018-04-29T10:23:29.144Z,8.30
2018-04-29T10:25:57.376Z,7.10
2018-04-29T10:28:24.836Z,6.47
2018-04-29T10:30:52.293Z,6.60
2018-04-29T10:33:19.747Z,7.53
2018-04-29T10:35:47.176Z,6.00
2018-04-29T10:38:14.615Z,6.17
2018-04-29T10:40:42.832Z,7.20
2018-04-29T10:43:10.264Z,5.50
2018-04-29T10:45:37.688Z,5.23
2018-04-29T10:48:05.900Z,5.53
2018-04-29T10:50:33.380Z,4.97
2018-04-29T10:53:00.835Z,5.27
2018-04-29T10:55:28.279Z,5.40
2018-04-29T10:57:55.712Z,3.73
2018-04-29T11:00:23.201Z,4.50
2018-04-29T11:02:50.661Z,4.67
2018-04-29T11:05:18.196Z,4.70
2018-04-29T11:07:45.664Z,4.47
2018-04-29T11:10:13.090Z,4.13
2018-04-29T11:12:40.507Z,4.10
2018-04-29T11:15:09.464Z,4.50
2018-04-29T11:17:36.929Z,4.17
2018-04-29T11:20:04.380Z,4.63
2018-04-29T11:22:31.844Z,4.00
2018-04-29T11:24:59.251Z,3.67
2018-04-29T11:27:27.449Z,4.03
2018-04-29T11:29:54.911Z,3.57
2018-04-29T11:32:22.744Z,3.80
2018-04-29T11:34:50.929Z,4.03
2018-04-29T11:37:18.364Z,3.10
2018-04-29T11:39:46.589Z,4.00
2018-04-29T11:42:14.008Z,3.90
2018-04-29T11:44:41.497Z,2.90
2018-04-29T11:47:08.956Z,3.50
2018-04-29T11:49:36.412Z,3.77
2018-04-29T11:52:03.839Z,2.70
2018-04-29T11:54:31.265Z,3.37
2018-04-29T11:56:59.501Z,3.80
2018-04-29T11:59:26.944Z,2.60
2018-04-29T12:01:54.451Z,4.50
2018-04-29T12:04:21.832Z,4.77
2018-04-29T12:06:49.260Z,3.77
2018-04-29T12:09:17.452Z,6.60
2018-04-29T12:11:44.946Z,7.47
2018-04-29T12:14:12.368Z,3.43
2018-04-29T12:16:39.856Z,5.40
2018-04-29T12:19:07.271Z,3.10
2018-04-29T12:21:35.471Z,3.70
2018-04-29T12:24:02.892Z,3.77
2018-04-29T12:26:31.083Z,3.50
2018-04-29T12:28:58.572Z,3.50
2018-04-29T12:31:26.934Z,3.93
2018-04-29T12:33:54.352Z,3.80
2018-04-29T12:36:22.540Z,3.30
2018-04-29T12:38:49.969Z,3.50
2018-04-29T12:41:17.484Z,3.40
2018-04-29T12:43:44.915Z,3.50
2018-04-29T12:46:12.336Z,2.60
2018-04-29T12:48:39.873Z,2.80
2018-04-29T12:51:07.304Z,3.27
2018-04-29T12:53:34.735Z,2.60
2018-04-29T12:56:02.156Z,2.90
2018-04-29T12:58:29.581Z,2.70
2018-04-29T13:00:57.063Z,2.50
2018-04-29T13:03:25.254Z,2.70
2018-04-29T13:05:53.472Z,2.50
2018-04-29T13:08:20.900Z,2.17
2018-04-29T13:10:48.336Z,2.23
2018-04-29T13:13:17.400Z,2.80
2018-04-29T13:15:44.832Z,2.07
2018-04-29T13:18:12.352Z,2.10
2018-04-29T13:20:40.567Z,2.97
2018-04-29T13:23:08.017Z,2.37
2018-04-29T13:25:35.477Z,2.57
2018-04-29T13:28:02.921Z,1.67
2018-04-29T13:30:30.394Z,2.60
2018-04-29T13:32:57.812Z,2.27
2018-04-29T13:35:25.240Z,2.40
2018-04-29T13:37:52.759Z,2.30
2018-04-29T13:40:20.180Z,2.10
2018-04-29T13:42:48.081Z,2.73
2018-04-29T13:45:15.483Z,2.90
2018-04-29T13:47:43.672Z,2.23
2018-04-29T13:50:11.096Z,2.23
2018-04-29T13:52:38.617Z,2.23
2018-04-29T13:55:06.052Z,2.03
2018-04-29T13:57:33.464Z,1.67
2018-04-29T14:00:00.981Z,2.00
2018-04-29T14:02:28.420Z,2.57
2018-04-29T14:04:55.904Z,2.47
2018-04-29T14:07:23.456Z,2.50
2018-04-29T14:09:50.872Z,2.60
2018-04-29T14:12:19.079Z,2.50
2018-04-29T14:14:47.049Z,1.97
2018-04-29T14:17:14.512Z,2.20
2018-04-29T14:19:41.933Z,1.70
2018-04-29T14:22:09.490Z,2.33
2018-04-29T14:24:36.854Z,2.90
2018-04-29T14:27:04.326Z,3.10
2018-04-29T14:29:31.754Z,2.93
2018-04-29T14:31:59.241Z,2.07
2018-04-29T14:34:26.668Z,2.10
2018-04-29T14:36:54.089Z,2.87
2018-04-29T14:39:22.327Z,2.43
2018-04-29T14:41:49.789Z,2.20
2018-04-29T14:44:17.216Z,3.10
2018-04-29T14:46:44.635Z,2.43
2018-04-29T14:49:12.155Z,2.87
2018-04-29T14:51:39.564Z,3.03
2018-04-29T14:54:07.760Z,2.47
2018-04-29T14:56:35.252Z,3.40
2018-04-29T14:59:02.676Z,2.80
2018-04-29T15:01:30.223Z,3.23
2018-04-29T15:03:57.572Z,3.30
2018-04-29T15:06:25.061Z,2.80
2018-04-29T15:08:52.484Z,2.63
2018-04-29T15:11:19.933Z,2.67
2018-04-29T15:13:47.458Z,3.10
2018-04-29T15:16:14.910Z,2.67
2018-04-29T15:18:54.127Z,3.03
2018-04-29T15:21:21.555Z,2.60
2018-04-29T15:23:48.977Z,3.00
2018-04-29T15:26:17.172Z,2.87
2018-04-29T15:28:44.644Z,3.33
2018-04-29T15:31:12.067Z,2.83
2018-04-29T15:33:40.269Z,2.70
2018-04-29T15:36:07.700Z,3.30
2018-04-29T15:38:35.122Z,2.90
2018-04-29T15:41:03.364Z,2.57
2018-04-29T15:43:30.796Z,2.60
2018-04-29T15:45:58.277Z,3.03
2018-04-29T15:48:25.734Z,3.10
2018-04-29T15:50:53.156Z,2.60
2018-04-29T15:53:20.649Z,2.80
2018-04-29T15:55:48.105Z,3.27
2018-04-29T15:58:15.544Z,3.47
2018-04-29T16:00:43.013Z,2.53
2018-04-29T16:03:10.437Z,2.87
2018-04-29T16:05:37.877Z,2.50
2018-04-29T16:08:06.100Z,2.90
2018-04-29T16:10:33.540Z,3.80
2018-04-29T16:13:01.044Z,2.63
2018-04-29T16:15:29.976Z,2.40
2018-04-29T16:17:57.402Z,3.20
2018-04-29T16:20:24.922Z,3.17
2018-04-29T16:22:52.353Z,3.17
2018-04-29T16:25:19.780Z,2.93
2018-04-29T16:27:48.043Z,3.83
2018-04-29T16:30:16.239Z,3.67
2018-04-29T16:32:43.740Z,3.20
2018-04-29T16:35:11.164Z,3.40
2018-04-29T16:37:38.588Z,3.60
2018-04-29T16:40:06.816Z,3.43
2018-04-29T16:42:34.272Z,3.77
2018-04-29T16:45:01.696Z,3.07
2018-04-29T16:47:29.183Z,3.23
2018-04-29T16:49:56.655Z,2.50
2018-04-29T16:52:24.085Z,2.63
2018-04-29T16:54:51.524Z,3.00
2018-04-29T16:57:18.949Z,4.50
2018-04-29T16:59:47.171Z,2.40
2018-04-29T17:02:14.601Z,3.23
2018-04-29T17:04:42.089Z,2.87
2018-04-29T17:07:09.508Z,2.70
2018-04-29T17:09:36.939Z,2.70
2018-04-29T17:12:04.461Z,2.97
2018-04-29T17:14:31.937Z,2.90
2018-04-29T17:16:59.487Z,4.37
2018-04-29T17:19:27.600Z,3.57
2018-04-29T17:21:55.824Z,3.53
2018-04-29T17:24:23.272Z,4.30
2018-04-29T17:26:50.730Z,3.13
2018-04-29T17:29:18.226Z,3.53
2018-04-29T17:31:45.600Z,3.97
2018-04-29T17:34:13.029Z,3.90
2018-04-29T17:36:42.073Z,4.20
2018-04-29T17:39:09.493Z,4.13
2018-04-29T17:41:37.684Z,3.50
2018-04-29T17:44:05.166Z,4.37
2018-04-29T17:46:33.308Z,4.43
2018-04-29T17:49:00.796Z,3.70
2018-04-29T17:51:28.224Z,3.37
2018-04-29T17:53:56.544Z,3.80
2018-04-29T17:56:23.972Z,3.80
2018-04-29T17:58:51.401Z,3.70
2018-04-29T18:01:19.650Z,3.20
2018-04-29T18:03:47.044Z,3.37
2018-04-29T18:06:14.532Z,3.10
2018-04-29T18:08:41.948Z,3.50
2018-04-29T18:11:09.415Z,3.70
2018-04-29T18:13:36.843Z,4.00
2018-04-29T18:16:05.036Z,3.93
2018-04-29T18:18:32.522Z,3.73
2018-04-29T18:21:00.599Z,4.10
2018-04-29T18:23:28.052Z,3.07
2018-04-29T18:25:55.476Z,3.40
2018-04-29T18:28:22.972Z,3.90
2018-04-29T18:30:50.408Z,4.60
2018-04-29T18:33:17.832Z,3.73
2018-04-29T18:35:45.260Z,4.27
2018-04-29T18:38:13.448Z,3.47
2018-04-29T18:40:41.679Z,4.07
2018-04-29T18:43:09.118Z,4.13
2018-04-29T18:45:36.588Z,4.87
2018-04-29T18:48:04.013Z,5.50
2018-04-29T18:50:31.632Z,5.23
2018-04-29T18:52:58.926Z,7.10
2018-04-29T18:55:26.358Z,7.07
2018-04-29T18:57:54.562Z,10.47
2018-04-29T19:00:22.039Z,11.30
2018-04-29T19:02:50.180Z,9.37
2018-04-29T19:05:17.660Z,7.90
2018-04-29T19:07:45.129Z,10.33
2018-04-29T19:10:12.563Z,8.20
2018-04-29T19:12:39.995Z,7.20
2018-04-29T19:15:07.433Z,6.17
2018-04-29T19:17:35.639Z,5.13
2018-04-29T19:20:03.113Z,6.50
2018-04-29T19:22:30.570Z,7.30
2018-04-29T19:24:57.996Z,7.77
2018-04-29T19:27:25.484Z,5.90
2018-04-29T19:29:52.943Z,8.27
2018-04-29T19:32:20.384Z,6.67
2018-04-29T19:34:47.848Z,7.13
2018-04-29T19:37:15.400Z,5.33
2018-04-29T19:39:42.863Z,5.70
2018-04-29T19:42:10.327Z,4.73
2018-04-29T19:44:37.774Z,4.87
2018-04-29T19:47:05.235Z,4.90
2018-04-29T19:49:32.660Z,4.73
2018-04-29T19:52:00.101Z,5.13
2018-04-29T19:54:28.312Z,4.97
2018-04-29T19:56:55.744Z,5.00
2018-04-29T19:59:23.172Z,4.50
2018-04-29T20:01:51.395Z,5.37
2018-04-29T20:04:18.820Z,5.20
2018-04-29T20:06:46.251Z,5.30
2018-04-29T20:09:14.528Z,4.37
2018-04-29T20:11:42.765Z,5.80
2018-04-29T20:14:10.220Z,4.67
2018-04-29T20:16:37.670Z,5.17
2018-04-29T20:19:05.100Z,4.30
2018-04-29T20:21:32.560Z,6.30
2018-04-29T20:24:00.036Z,5.80
2018-04-29T20:26:27.504Z,4.97
2018-04-29T20:28:55.055Z,6.43
2018-04-29T20:31:22.509Z,5.00
2018-04-29T20:33:49.967Z,5.80
2018-04-29T20:36:17.431Z,5.60
2018-04-29T20:38:44.848Z,5.73
2018-04-29T20:41:12.328Z,5.47
2018-04-29T20:43:39.765Z,5.43
2018-04-29T20:46:07.249Z,6.17
2018-04-29T20:48:34.777Z,5.20
2018-04-29T20:51:02.120Z,6.60
2018-04-29T20:53:29.628Z,5.70
2018-04-29T20:55:57.055Z,5.63
2018-04-29T20:58:24.480Z,6.70
2018-04-29T21:00:52.672Z,5.77
2018-04-29T21:03:20.156Z,6.50
2018-04-29T21:05:49.166Z,5.70
2018-04-29T21:08:16.604Z,6.00
2018-04-29T21:10:44.036Z,5.67
2018-04-29T21:13:11.509Z,6.50
2018-04-29T21:15:38.973Z,7.17
2018-04-29T21:18:06.424Z,7.70
2018-04-29T21:20:33.891Z,6.93
2018-04-29T21:23:01.344Z,7.10
2018-04-29T21:25:28.781Z,6.30
2018-04-29T21:27:56.245Z,6.53
2018-04-29T21:30:23.710Z,5.73
2018-04-29T21:32:51.159Z,6.20
2018-04-29T21:35:18.596Z,6.90
2018-04-29T21:37:46.070Z,6.13
2018-04-29T21:40:13.488Z,6.40
2018-04-29T21:42:40.985Z,6.40
2018-04-29T21:45:08.443Z,6.50
2018-04-29T21:47:35.901Z,7.23
2018-04-29T21:50:03.353Z,6.63
2018-04-29T21:52:30.817Z,7.07
2018-04-29T21:54:58.260Z,7.50
2018-04-29T21:57:25.691Z,6.90
2018-04-29T21:59:53.123Z,6.83
2018-04-29T22:02:21.352Z,6.97
2018-04-29T22:04:48.786Z,7.40
2018-04-29T22:07:16.264Z,8.70
2018-04-29T22:09:43.743Z,7.53
2018-04-29T22:12:11.172Z,6.70
2018-04-29T22:14:38.629Z,7.03
2018-04-29T22:17:06.084Z,6.67
2018-04-29T22:19:33.545Z,8.50
2018-04-29T22:22:00.968Z,7.60
2018-04-29T22:24:28.413Z,7.57
2018-04-29T22:26:55.839Z,7.70
2018-04-29T22:29:23.305Z,8.37
2018-04-29T22:31:51.495Z,7.47
2018-04-29T22:34:18.930Z,7.23
2018-04-29T22:36:47.171Z,7.77
2018-04-29T22:39:14.616Z,7.77
2018-04-29T22:41:42.145Z,8.17
2018-04-29T22:44:09.532Z,8.43
2018-04-29T22:46:36.989Z,6.73
2018-04-29T22:49:04.421Z,7.90
2018-04-29T22:51:31.897Z,9.10
2018-04-29T22:53:59.325Z,7.57
2018-04-29T22:56:26.756Z,8.40
2018-04-29T22:58:54.952Z,7.37
2018-04-29T23:01:22.432Z,7.73
2018-04-29T23:03:49.908Z,7.40
2018-04-29T23:06:17.319Z,7.13
2018-04-29T23:08:44.813Z,8.47
2018-04-29T23:11:12.251Z,9.50
2018-04-29T23:13:39.715Z,8.23
2018-04-29T23:16:07.176Z,8.10
2018-04-29T23:18:34.630Z,9.20
2018-04-29T23:21:02.067Z,8.77
2018-04-29T23:23:29.540Z,8.57
2018-04-29T23:25:57.072Z,7.73
2018-04-29T23:28:24.445Z,9.20
2018-04-29T23:30:51.880Z,8.57
2018-04-29T23:33:19.308Z,11.43
2018-04-29T23:35:47.527Z,11.30
2018-04-29T23:38:14.987Z,12.67
2018-04-29T23:40:42.504Z,12.00
2018-04-29T23:43:10.729Z,12.23
2018-04-29T23:45:38.162Z,12.40
2018-04-29T23:48:05.734Z,12.93
2018-04-29T23:50:33.160Z,14.17
2018-04-29T23:53:00.652Z,13.53
2018-04-29T23:55:28.090Z,14.07
2018-04-29T23:57:55.524Z,13.30
